Allenton, Michigan
Current Conditions -  °F | °C
As of 12:34 PM on Saturday 22 Nov 2014 (Local Time) from KD95 Reporting Station
Overcast Overcast  
Wind Chill: 31°   Ceiling: 800
Heat Index: 38°   Visibility: 7mi
Dew Point: 36°   Wind: 12mph
Humidity: 90%   Direction: 240°WSW
Pressure: 29.96"   Gusts: 18mph
Location:  42.92°N, 82.95°W
Report Text: KD95 221734Z AUTO 24010G16KT 7SM OVC008 04/02 A2996 RMK AO2 T00350020
Loading
Personal Weather Stations






























Interactive Weather Map New forecast layout! Learn more

10-Day Weather Forecast

Advertisements
Track Severe Weather on mobile